sensor_id;sensor_type;location;lat;lon;timestamp;temperature;humidity
42965;DHT22;28604;51.204;22.552;2022-10-18T00:01:56;14.40;83.00
42965;DHT22;28604;51.204;22.552;2022-10-18T00:04:22;14.40;83.70
42965;DHT22;28604;51.204;22.552;2022-10-18T00:06:48;14.40;82.90
42965;DHT22;28604;51.204;22.552;2022-10-18T00:09:14;14.40;83.40
42965;DHT22;28604;51.204;22.552;2022-10-18T00:11:40;14.40;83.70
42965;DHT22;28604;51.204;22.552;2022-10-18T00:14:07;14.30;83.00
42965;DHT22;28604;51.204;22.552;2022-10-18T00:16:33;14.30;83.50
42965;DHT22;28604;51.204;22.552;2022-10-18T00:18:59;14.30;83.00
42965;DHT22;28604;51.204;22.552;2022-10-18T00:21:25;14.30;83.00
42965;DHT22;28604;51.204;22.552;2022-10-18T00:23:52;14.30;83.50
42965;DHT22;28604;51.204;22.552;2022-10-18T00:26:26;14.30;83.30
42965;DHT22;28604;51.204;22.552;2022-10-18T00:29:01;14.30;83.80
42965;DHT22;28604;51.204;22.552;2022-10-18T00:31:33;14.20;83.10
42965;DHT22;28604;51.204;22.552;2022-10-18T00:34:02;14.20;83.90
42965;DHT22;28604;51.204;22.552;2022-10-18T00:36:29;14.20;84.00
42965;DHT22;28604;51.204;22.552;2022-10-18T00:38:57;14.20;84.10
42965;DHT22;28604;51.204;22.552;2022-10-18T00:41:25;14.20;83.70
42965;DHT22;28604;51.204;22.552;2022-10-18T00:46:32;14.00;84.20
42965;DHT22;28604;51.204;22.552;2022-10-18T00:49:01;14.00;84.10
42965;DHT22;28604;51.204;22.552;2022-10-18T00:51:35;14.10;84.30
42965;DHT22;28604;51.204;22.552;2022-10-18T00:54:03;14.10;84.00
42965;DHT22;28604;51.204;22.552;2022-10-18T00:56:29;14.10;83.90
42965;DHT22;28604;51.204;22.552;2022-10-18T00:58:56;14.10;84.50
42965;DHT22;28604;51.204;22.552;2022-10-18T01:01:22;14.10;84.00
42965;DHT22;28604;51.204;22.552;2022-10-18T01:03:50;14.10;84.00
42965;DHT22;28604;51.204;22.552;2022-10-18T01:06:17;14.10;84.30
42965;DHT22;28604;51.204;22.552;2022-10-18T01:17:18;14.00;84.10
42965;DHT22;28604;51.204;22.552;2022-10-18T01:28:23;13.90;83.60
42965;DHT22;28604;51.204;22.552;2022-10-18T01:30:58;13.90;84.00
42965;DHT22;28604;51.204;22.552;2022-10-18T01:33:55;13.90;82.80
42965;DHT22;28604;51.204;22.552;2022-10-18T01:36:32;13.90;84.20
42965;DHT22;28604;51.204;22.552;2022-10-18T01:39:01;13.90;84.10
42965;DHT22;28604;51.204;22.552;2022-10-18T01:41:31;13.80;83.50
42965;DHT22;28604;51.204;22.552;2022-10-18T01:44:00;13.80;82.60
42965;DHT22;28604;51.204;22.552;2022-10-18T01:46:28;13.80;83.70
42965;DHT22;28604;51.204;22.552;2022-10-18T01:48:55;13.80;84.20
42965;DHT22;28604;51.204;22.552;2022-10-18T01:51:30;13.80;83.30
42965;DHT22;28604;51.204;22.552;2022-10-18T01:53:57;13.80;84.00
42965;DHT22;28604;51.204;22.552;2022-10-18T02:04:50;13.60;83.40
42965;DHT22;28604;51.204;22.552;2022-10-18T02:07:59;13.50;83.80
42965;DHT22;28604;51.204;22.552;2022-10-18T02:10:34;13.50;83.50
42965;DHT22;28604;51.204;22.552;2022-10-18T02:13:01;13.50;85.00
42965;DHT22;28604;51.204;22.552;2022-10-18T02:15:32;13.50;84.40
42965;DHT22;28604;51.204;22.552;2022-10-18T02:18:00;13.40;84.10
42965;DHT22;28604;51.204;22.552;2022-10-18T02:20:28;13.50;84.00
42965;DHT22;28604;51.204;22.552;2022-10-18T02:22:58;13.40;85.00
42965;DHT22;28604;51.204;22.552;2022-10-18T02:25:28;13.40;83.40
42965;DHT22;28604;51.204;22.552;2022-10-18T02:27:55;13.30;83.70
42965;DHT22;28604;51.204;22.552;2022-10-18T02:30:23;13.40;84.90
42965;DHT22;28604;51.204;22.552;2022-10-18T02:33:10;13.30;84.80
42965;DHT22;28604;51.204;22.552;2022-10-18T02:35:43;13.30;84.40
42965;DHT22;28604;51.204;22.552;2022-10-18T02:38:13;13.40;84.80
42965;DHT22;28604;51.204;22.552;2022-10-18T02:40:39;13.40;84.80
42965;DHT22;28604;51.204;22.552;2022-10-18T02:43:06;13.30;85.50
42965;DHT22;28604;51.204;22.552;2022-10-18T02:45:32;13.20;84.30
42965;DHT22;28604;51.204;22.552;2022-10-18T02:47:58;13.20;86.00
42965;DHT22;28604;51.204;22.552;2022-10-18T02:50:24;13.20;85.50
42965;DHT22;28604;51.204;22.552;2022-10-18T02:52:50;13.30;84.90
42965;DHT22;28604;51.204;22.552;2022-10-18T02:55:16;13.30;84.70
42965;DHT22;28604;51.204;22.552;2022-10-18T02:57:42;13.30;85.40
42965;DHT22;28604;51.204;22.552;2022-10-18T03:00:08;13.20;84.20
42965;DHT22;28604;51.204;22.552;2022-10-18T03:02:35;13.10;85.40
42965;DHT22;28604;51.204;22.552;2022-10-18T03:05:01;13.10;85.00
42965;DHT22;28604;51.204;22.552;2022-10-18T03:07:27;13.20;85.20
42965;DHT22;28604;51.204;22.552;2022-10-18T03:09:53;13.20;84.60
42965;DHT22;28604;51.204;22.552;2022-10-18T03:12:19;13.20;84.70
42965;DHT22;28604;51.204;22.552;2022-10-18T03:14:44;13.10;84.30
42965;DHT22;28604;51.204;22.552;2022-10-18T03:17:10;13.10;82.70
42965;DHT22;28604;51.204;22.552;2022-10-18T03:19:36;13.10;82.90
42965;DHT22;28604;51.204;22.552;2022-10-18T03:22:04;13.10;84.30
42965;DHT22;28604;51.204;22.552;2022-10-18T03:24:30;13.10;84.10
42965;DHT22;28604;51.204;22.552;2022-10-18T03:26:56;13.20;84.20
42965;DHT22;28604;51.204;22.552;2022-10-18T03:29:22;13.10;84.30
42965;DHT22;28604;51.204;22.552;2022-10-18T03:31:48;13.10;83.90
42965;DHT22;28604;51.204;22.552;2022-10-18T03:34:14;13.00;84.30
42965;DHT22;28604;51.204;22.552;2022-10-18T03:36:42;13.00;84.10
42965;DHT22;28604;51.204;22.552;2022-10-18T03:39:10;13.00;85.10
42965;DHT22;28604;51.204;22.552;2022-10-18T03:41:36;12.90;84.00
42965;DHT22;28604;51.204;22.552;2022-10-18T03:44:01;12.90;84.60
42965;DHT22;28604;51.204;22.552;2022-10-18T03:46:27;12.90;84.40
42965;DHT22;28604;51.204;22.552;2022-10-18T03:48:53;12.90;83.90
42965;DHT22;28604;51.204;22.552;2022-10-18T03:51:19;12.90;84.30
42965;DHT22;28604;51.204;22.552;2022-10-18T03:53:45;12.90;84.50
42965;DHT22;28604;51.204;22.552;2022-10-18T03:56:11;12.90;84.50
42965;DHT22;28604;51.204;22.552;2022-10-18T03:58:37;12.80;84.50
42965;DHT22;28604;51.204;22.552;2022-10-18T04:01:03;12.80;85.60
42965;DHT22;28604;51.204;22.552;2022-10-18T04:03:29;12.80;85.10
42965;DHT22;28604;51.204;22.552;2022-10-18T04:05:55;12.80;85.00
42965;DHT22;28604;51.204;22.552;2022-10-18T04:08:21;12.80;85.80
42965;DHT22;28604;51.204;22.552;2022-10-18T04:10:47;12.70;85.90
42965;DHT22;28604;51.204;22.552;2022-10-18T04:13:13;12.70;85.50
42965;DHT22;28604;51.204;22.552;2022-10-18T04:15:39;12.70;85.80
42965;DHT22;28604;51.204;22.552;2022-10-18T04:18:05;12.70;85.40
42965;DHT22;28604;51.204;22.552;2022-10-18T04:20:31;12.70;85.60
42965;DHT22;28604;51.204;22.552;2022-10-18T04:22:57;12.60;85.90
42965;DHT22;28604;51.204;22.552;2022-10-18T04:25:23;12.60;85.90
42965;DHT22;28604;51.204;22.552;2022-10-18T04:27:50;12.50;86.20
42965;DHT22;28604;51.204;22.552;2022-10-18T04:30:16;12.60;86.00
42965;DHT22;28604;51.204;22.552;2022-10-18T04:32:42;12.60;85.30
42965;DHT22;28604;51.204;22.552;2022-10-18T04:35:08;12.60;86.00
42965;DHT22;28604;51.204;22.552;2022-10-18T04:37:35;12.60;85.30
42965;DHT22;28604;51.204;22.552;2022-10-18T04:40:01;12.60;86.00
42965;DHT22;28604;51.204;22.552;2022-10-18T04:42:27;12.60;85.40
42965;DHT22;28604;51.204;22.552;2022-10-18T04:44:53;12.50;86.00
42965;DHT22;28604;51.204;22.552;2022-10-18T04:47:19;12.50;86.50
42965;DHT22;28604;51.204;22.552;2022-10-18T04:49:45;12.50;85.60
42965;DHT22;28604;51.204;22.552;2022-10-18T04:52:11;12.50;85.80
42965;DHT22;28604;51.204;22.552;2022-10-18T04:54:37;12.50;86.70
42965;DHT22;28604;51.204;22.552;2022-10-18T04:57:03;12.40;86.80
42965;DHT22;28604;51.204;22.552;2022-10-18T04:59:29;12.50;86.60
42965;DHT22;28604;51.204;22.552;2022-10-18T05:01:55;12.50;87.20
42965;DHT22;28604;51.204;22.552;2022-10-18T05:04:29;12.50;86.60
42965;DHT22;28604;51.204;22.552;2022-10-18T05:06:55;12.50;86.00
42965;DHT22;28604;51.204;22.552;2022-10-18T05:09:21;12.50;86.00
42965;DHT22;28604;51.204;22.552;2022-10-18T05:11:49;12.50;86.50
42965;DHT22;28604;51.204;22.552;2022-10-18T05:14:15;12.50;86.50
42965;DHT22;28604;51.204;22.552;2022-10-18T05:16:41;12.50;85.80
42965;DHT22;28604;51.204;22.552;2022-10-18T05:19:08;12.50;86.00
42965;DHT22;28604;51.204;22.552;2022-10-18T05:21:34;12.60;86.30
42965;DHT22;28604;51.204;22.552;2022-10-18T05:24:00;12.60;87.00
42965;DHT22;28604;51.204;22.552;2022-10-18T05:26:26;12.70;86.50
42965;DHT22;28604;51.204;22.552;2022-10-18T05:28:52;12.70;86.30
42965;DHT22;28604;51.204;22.552;2022-10-18T05:31:18;12.80;86.50
42965;DHT22;28604;51.204;22.552;2022-10-18T05:33:44;12.80;86.30
42965;DHT22;28604;51.204;22.552;2022-10-18T05:36:11;12.90;86.30
42965;DHT22;28604;51.204;22.552;2022-10-18T05:38:38;13.00;86.30
42965;DHT22;28604;51.204;22.552;2022-10-18T05:41:06;13.10;86.10
42965;DHT22;28604;51.204;22.552;2022-10-18T05:43:32;13.20;85.80
42965;DHT22;28604;51.204;22.552;2022-10-18T05:45:58;13.40;85.40
42965;DHT22;28604;51.204;22.552;2022-10-18T05:48:24;13.50;85.20
42965;DHT22;28604;51.204;22.552;2022-10-18T05:50:51;13.70;85.10
42965;DHT22;28604;51.204;22.552;2022-10-18T05:53:17;13.80;84.90
42965;DHT22;28604;51.204;22.552;2022-10-18T05:55:43;13.90;84.30
42965;DHT22;28604;51.204;22.552;2022-10-18T05:58:09;14.10;84.00
42965;DHT22;28604;51.204;22.552;2022-10-18T06:00:35;14.20;83.30
42965;DHT22;28604;51.204;22.552;2022-10-18T06:03:01;14.30;83.10
42965;DHT22;28604;51.204;22.552;2022-10-18T06:05:27;14.50;83.00
42965;DHT22;28604;51.204;22.552;2022-10-18T06:07:53;14.70;82.30
42965;DHT22;28604;51.204;22.552;2022-10-18T06:10:20;15.00;82.00
42965;DHT22;28604;51.204;22.552;2022-10-18T06:12:46;15.10;81.40
42965;DHT22;28604;51.204;22.552;2022-10-18T06:15:12;15.30;80.90
42965;DHT22;28604;51.204;22.552;2022-10-18T06:17:38;15.50;80.70
42965;DHT22;28604;51.204;22.552;2022-10-18T06:20:04;15.70;80.00
42965;DHT22;28604;51.204;22.552;2022-10-18T06:22:32;15.70;79.40
42965;DHT22;28604;51.204;22.552;2022-10-18T06:24:58;15.90;79.30
42965;DHT22;28604;51.204;22.552;2022-10-18T06:27:24;16.00;79.10
42965;DHT22;28604;51.204;22.552;2022-10-18T06:29:50;16.20;78.90
42965;DHT22;28604;51.204;22.552;2022-10-18T06:32:16;16.40;78.50
42965;DHT22;28604;51.204;22.552;2022-10-18T06:34:42;16.40;78.00
42965;DHT22;28604;51.204;22.552;2022-10-18T06:37:08;16.60;78.20
42965;DHT22;28604;51.204;22.552;2022-10-18T06:39:33;16.70;77.40
42965;DHT22;28604;51.204;22.552;2022-10-18T06:41:59;16.80;77.20
42965;DHT22;28604;51.204;22.552;2022-10-18T06:44:25;16.90;77.00
42965;DHT22;28604;51.204;22.552;2022-10-18T06:46:51;17.00;76.90
42965;DHT22;28604;51.204;22.552;2022-10-18T06:49:18;17.00;76.40
42965;DHT22;28604;51.204;22.552;2022-10-18T06:51:44;17.10;76.40
42965;DHT22;28604;51.204;22.552;2022-10-18T06:54:11;17.20;76.10
42965;DHT22;28604;51.204;22.552;2022-10-18T06:56:37;17.30;76.10
42965;DHT22;28604;51.204;22.552;2022-10-18T06:59:03;17.40;75.60
42965;DHT22;28604;51.204;22.552;2022-10-18T07:01:30;17.40;75.80
42965;DHT22;28604;51.204;22.552;2022-10-18T07:03:56;17.50;75.60
42965;DHT22;28604;51.204;22.552;2022-10-18T07:06:22;17.60;75.30
42965;DHT22;28604;51.204;22.552;2022-10-18T07:08:49;17.60;75.30
42965;DHT22;28604;51.204;22.552;2022-10-18T07:11:22;17.70;74.90
42965;DHT22;28604;51.204;22.552;2022-10-18T07:13:52;17.90;74.30
42965;DHT22;28604;51.204;22.552;2022-10-18T07:16:19;18.00;74.20
42965;DHT22;28604;51.204;22.552;2022-10-18T07:18:47;18.10;73.90
42965;DHT22;28604;51.204;22.552;2022-10-18T07:21:16;18.30;74.00
42965;DHT22;28604;51.204;22.552;2022-10-18T07:23:44;18.30;72.90
42965;DHT22;28604;51.204;22.552;2022-10-18T07:26:21;18.40;73.00
42965;DHT22;28604;51.204;22.552;2022-10-18T07:28:58;18.40;73.00
42965;DHT22;28604;51.204;22.552;2022-10-18T07:31:26;18.40;73.00
42965;DHT22;28604;51.204;22.552;2022-10-18T07:33:52;18.60;72.50
42965;DHT22;28604;51.204;22.552;2022-10-18T07:36:19;18.60;72.10
42965;DHT22;28604;51.204;22.552;2022-10-18T07:38:50;18.80;71.90
42965;DHT22;28604;51.204;22.552;2022-10-18T07:41:16;18.80;71.80
42965;DHT22;28604;51.204;22.552;2022-10-18T07:43:47;18.90;72.10
42965;DHT22;28604;51.204;22.552;2022-10-18T07:46:15;19.10;71.20
42965;DHT22;28604;51.204;22.552;2022-10-18T07:48:41;19.30;71.70
42965;DHT22;28604;51.204;22.552;2022-10-18T07:51:08;19.60;71.60
42965;DHT22;28604;51.204;22.552;2022-10-18T07:53:34;19.60;70.00
42965;DHT22;28604;51.204;22.552;2022-10-18T07:56:01;19.90;70.70
42965;DHT22;28604;51.204;22.552;2022-10-18T07:58:29;20.00;68.70
42965;DHT22;28604;51.204;22.552;2022-10-18T08:00:55;20.10;69.10
42965;DHT22;28604;51.204;22.552;2022-10-18T08:03:21;20.20;68.20
42965;DHT22;28604;51.204;22.552;2022-10-18T08:05:53;20.30;67.50
42965;DHT22;28604;51.204;22.552;2022-10-18T08:08:21;20.40;67.50
42965;DHT22;28604;51.204;22.552;2022-10-18T08:10:47;20.40;67.30
42965;DHT22;28604;51.204;22.552;2022-10-18T08:13:13;20.40;68.00
42965;DHT22;28604;51.204;22.552;2022-10-18T08:15:39;20.40;67.50
42965;DHT22;28604;51.204;22.552;2022-10-18T08:18:05;20.60;67.20
42965;DHT22;28604;51.204;22.552;2022-10-18T08:20:31;20.50;67.20
42965;DHT22;28604;51.204;22.552;2022-10-18T08:22:58;20.60;66.90
42965;DHT22;28604;51.204;22.552;2022-10-18T08:25:24;20.60;67.10
42965;DHT22;28604;51.204;22.552;2022-10-18T08:27:50;20.60;66.80
42965;DHT22;28604;51.204;22.552;2022-10-18T08:30:16;20.60;66.70
42965;DHT22;28604;51.204;22.552;2022-10-18T08:32:42;20.60;66.50
42965;DHT22;28604;51.204;22.552;2022-10-18T08:35:08;20.60;65.90
42965;DHT22;28604;51.204;22.552;2022-10-18T08:37:34;20.60;66.50
42965;DHT22;28604;51.204;22.552;2022-10-18T08:40:00;20.60;65.90
42965;DHT22;28604;51.204;22.552;2022-10-18T08:42:36;20.70;65.20
42965;DHT22;28604;51.204;22.552;2022-10-18T08:45:06;20.70;65.20
42965;DHT22;28604;51.204;22.552;2022-10-18T08:47:41;20.40;65.60
42965;DHT22;28604;51.204;22.552;2022-10-18T08:50:26;20.60;65.60
42965;DHT22;28604;51.204;22.552;2022-10-18T08:53:17;20.70;65.90
42965;DHT22;28604;51.204;22.552;2022-10-18T08:55:49;20.70;65.60
42965;DHT22;28604;51.204;22.552;2022-10-18T08:58:21;20.60;65.10
42965;DHT22;28604;51.204;22.552;2022-10-18T09:09:23;21.10;65.00
42965;DHT22;28604;51.204;22.552;2022-10-18T09:27:54;22.00;61.50
42965;DHT22;28604;51.204;22.552;2022-10-18T09:36:15;22.60;60.70
42965;DHT22;28604;51.204;22.552;2022-10-18T09:38:47;22.70;59.60
42965;DHT22;28604;51.204;22.552;2022-10-18T09:41:31;23.00;58.80
42965;DHT22;28604;51.204;22.552;2022-10-18T09:46:38;23.10;59.20
42965;DHT22;28604;51.204;22.552;2022-10-18T09:54:43;23.30;56.40
42965;DHT22;28604;51.204;22.552;2022-10-18T09:59:47;23.40;56.00
42965;DHT22;28604;51.204;22.552;2022-10-18T10:02:16;23.40;55.90
42965;DHT22;28604;51.204;22.552;2022-10-18T10:04:43;23.60;55.70
42965;DHT22;28604;51.204;22.552;2022-10-18T10:07:16;23.80;56.60
42965;DHT22;28604;51.204;22.552;2022-10-18T10:09:56;23.90;55.90
42965;DHT22;28604;51.204;22.552;2022-10-18T10:12:31;24.30;56.00
42965;DHT22;28604;51.204;22.552;2022-10-18T10:17:32;24.40;54.20
42965;DHT22;28604;51.204;22.552;2022-10-18T10:22:41;24.30;54.20
42965;DHT22;28604;51.204;22.552;2022-10-18T10:25:30;24.30;54.90
42965;DHT22;28604;51.204;22.552;2022-10-18T10:28:02;24.50;55.10
42965;DHT22;28604;51.204;22.552;2022-10-18T10:30:36;24.60;54.90
42965;DHT22;28604;51.204;22.552;2022-10-18T10:33:04;25.00;54.80
42965;DHT22;28604;51.204;22.552;2022-10-18T10:35:34;25.00;53.40
42965;DHT22;28604;51.204;22.552;2022-10-18T10:38:01;25.10;53.40
42965;DHT22;28604;51.204;22.552;2022-10-18T10:40:50;25.10;53.30
42965;DHT22;28604;51.204;22.552;2022-10-18T10:46:07;25.10;53.00
42965;DHT22;28604;51.204;22.552;2022-10-18T10:48:47;25.20;53.00
42965;DHT22;28604;51.204;22.552;2022-10-18T10:51:35;25.20;52.50
42965;DHT22;28604;51.204;22.552;2022-10-18T10:54:15;25.00;52.40
42965;DHT22;28604;51.204;22.552;2022-10-18T10:59:42;25.00;53.20
42965;DHT22;28604;51.204;22.552;2022-10-18T11:04:45;24.80;53.70
42965;DHT22;28604;51.204;22.552;2022-10-18T11:07:22;25.00;53.60
42965;DHT22;28604;51.204;22.552;2022-10-18T11:10:29;25.00;53.80
42965;DHT22;28604;51.204;22.552;2022-10-18T11:12:56;25.20;54.00
42965;DHT22;28604;51.204;22.552;2022-10-18T11:15:51;25.20;53.20
42965;DHT22;28604;51.204;22.552;2022-10-18T11:18:27;25.20;54.10
42965;DHT22;28604;51.204;22.552;2022-10-18T11:20:55;25.30;52.70
42965;DHT22;28604;51.204;22.552;2022-10-18T11:23:29;25.30;52.80
42965;DHT22;28604;51.204;22.552;2022-10-18T11:59:00;25.70;53.60
42965;DHT22;28604;51.204;22.552;2022-10-18T12:01:44;25.80;53.00
42965;DHT22;28604;51.204;22.552;2022-10-18T12:04:20;25.70;53.30
42965;DHT22;28604;51.204;22.552;2022-10-18T12:06:50;25.80;53.40
42965;DHT22;28604;51.204;22.552;2022-10-18T12:09:30;25.70;53.80
42965;DHT22;28604;51.204;22.552;2022-10-18T12:12:01;25.70;53.70
42965;DHT22;28604;51.204;22.552;2022-10-18T12:20:00;25.60;54.30
42965;DHT22;28604;51.204;22.552;2022-10-18T12:22:40;25.50;54.50
42965;DHT22;28604;51.204;22.552;2022-10-18T12:25:15;25.50;54.30
42965;DHT22;28604;51.204;22.552;2022-10-18T12:27:47;25.50;55.00
42965;DHT22;28604;51.204;22.552;2022-10-18T12:30:35;25.50;54.70
42965;DHT22;28604;51.204;22.552;2022-10-18T12:33:08;25.50;54.80
42965;DHT22;28604;51.204;22.552;2022-10-18T12:35:51;25.50;55.40
42965;DHT22;28604;51.204;22.552;2022-10-18T12:38:25;25.50;54.70
42965;DHT22;28604;51.204;22.552;2022-10-18T12:40:55;25.50;54.30
42965;DHT22;28604;51.204;22.552;2022-10-18T12:43:29;25.40;54.40
42965;DHT22;28604;51.204;22.552;2022-10-18T12:46:04;25.50;54.70
42965;DHT22;28604;51.204;22.552;2022-10-18T12:48:39;25.40;53.30
42965;DHT22;28604;51.204;22.552;2022-10-18T12:51:18;25.30;53.40
42965;DHT22;28604;51.204;22.552;2022-10-18T12:53:48;25.40;54.00
42965;DHT22;28604;51.204;22.552;2022-10-18T13:09:30;25.20;51.40
42965;DHT22;28604;51.204;22.552;2022-10-18T13:17:32;25.20;51.70
42965;DHT22;28604;51.204;22.552;2022-10-18T13:31:00;25.10;51.80
42965;DHT22;28604;51.204;22.552;2022-10-18T13:33:33;25.00;51.70
42965;DHT22;28604;51.204;22.552;2022-10-18T13:36:44;24.80;52.40
42965;DHT22;28604;51.204;22.552;2022-10-18T13:41:22;24.70;52.60
42965;DHT22;28604;51.204;22.552;2022-10-18T13:43:54;24.70;52.80
42965;DHT22;28604;51.204;22.552;2022-10-18T13:54:54;24.50;53.10
42965;DHT22;28604;51.204;22.552;2022-10-18T14:06:21;24.30;54.00
42965;DHT22;28604;51.204;22.552;2022-10-18T14:09:02;24.30;54.30
42965;DHT22;28604;51.204;22.552;2022-10-18T14:11:37;24.10;54.70
42965;DHT22;28604;51.204;22.552;2022-10-18T14:14:35;24.00;54.50
42965;DHT22;28604;51.204;22.552;2022-10-18T14:17:23;24.00;54.70
42965;DHT22;28604;51.204;22.552;2022-10-18T14:22:52;23.90;54.50
42965;DHT22;28604;51.204;22.552;2022-10-18T14:25:32;23.90;55.10
42965;DHT22;28604;51.204;22.552;2022-10-18T14:30:36;23.80;54.90
42965;DHT22;28604;51.204;22.552;2022-10-18T14:33:03;23.60;55.10
42965;DHT22;28604;51.204;22.552;2022-10-18T14:35:31;23.60;55.40
42965;DHT22;28604;51.204;22.552;2022-10-18T14:37:58;23.60;55.40
42965;DHT22;28604;51.204;22.552;2022-10-18T14:40:38;23.40;55.70
42965;DHT22;28604;51.204;22.552;2022-10-18T14:43:13;23.40;55.90
42965;DHT22;28604;51.204;22.552;2022-10-18T14:45:40;23.30;55.70
42965;DHT22;28604;51.204;22.552;2022-10-18T14:48:20;23.20;56.00
42965;DHT22;28604;51.204;22.552;2022-10-18T14:50:58;23.20;56.10
42965;DHT22;28604;51.204;22.552;2022-10-18T14:53:29;23.10;56.20
42965;DHT22;28604;51.204;22.552;2022-10-18T14:55:59;23.00;56.50
42965;DHT22;28604;51.204;22.552;2022-10-18T14:58:34;22.80;56.90
42965;DHT22;28604;51.204;22.552;2022-10-18T15:01:01;22.70;57.00
42965;DHT22;28604;51.204;22.552;2022-10-18T15:03:31;22.60;57.20
42965;DHT22;28604;51.204;22.552;2022-10-18T15:06:01;22.50;57.60
42965;DHT22;28604;51.204;22.552;2022-10-18T15:08:34;22.40;58.00
42965;DHT22;28604;51.204;22.552;2022-10-18T15:11:01;22.40;58.00
42965;DHT22;28604;51.204;22.552;2022-10-18T15:13:30;22.20;58.20
42965;DHT22;28604;51.204;22.552;2022-10-18T15:15:56;22.20;58.80
42965;DHT22;28604;51.204;22.552;2022-10-18T15:18:24;22.00;58.90
42965;DHT22;28604;51.204;22.552;2022-10-18T15:21:22;21.90;59.40
42965;DHT22;28604;51.204;22.552;2022-10-18T15:23:49;21.80;59.90
42965;DHT22;28604;51.204;22.552;2022-10-18T15:26:25;21.60;60.10
42965;DHT22;28604;51.204;22.552;2022-10-18T15:28:55;21.50;60.40
42965;DHT22;28604;51.204;22.552;2022-10-18T15:31:30;21.40;60.70
42965;DHT22;28604;51.204;22.552;2022-10-18T15:34:24;21.40;60.70
42965;DHT22;28604;51.204;22.552;2022-10-18T15:36:53;21.30;61.10
42965;DHT22;28604;51.204;22.552;2022-10-18T15:39:25;21.10;61.20
42965;DHT22;28604;51.204;22.552;2022-10-18T15:41:59;21.00;61.80
42965;DHT22;28604;51.204;22.552;2022-10-18T15:54:53;20.40;62.50
42965;DHT22;28604;51.204;22.552;2022-10-18T15:57:19;20.30;62.60
42965;DHT22;28604;51.204;22.552;2022-10-18T15:59:56;20.20;63.00
42965;DHT22;28604;51.204;22.552;2022-10-18T16:02:25;20.20;63.10
42965;DHT22;28604;51.204;22.552;2022-10-18T16:04:51;20.10;63.30
42965;DHT22;28604;51.204;22.552;2022-10-18T16:07:17;20.00;63.40
42965;DHT22;28604;51.204;22.552;2022-10-18T16:09:42;19.90;64.00
42965;DHT22;28604;51.204;22.552;2022-10-18T16:12:08;19.80;64.50
42965;DHT22;28604;51.204;22.552;2022-10-18T16:14:34;19.70;64.10
42965;DHT22;28604;51.204;22.552;2022-10-18T16:17:03;19.70;64.00
42965;DHT22;28604;51.204;22.552;2022-10-18T16:19:29;19.60;64.40
42965;DHT22;28604;51.204;22.552;2022-10-18T16:21:56;19.60;64.20
42965;DHT22;28604;51.204;22.552;2022-10-18T16:24:23;19.40;64.70
42965;DHT22;28604;51.204;22.552;2022-10-18T16:26:49;19.40;65.40
42965;DHT22;28604;51.204;22.552;2022-10-18T16:29:17;19.30;64.90
42965;DHT22;28604;51.204;22.552;2022-10-18T16:31:46;19.20;65.10
42965;DHT22;28604;51.204;22.552;2022-10-18T16:34:13;19.20;64.90
42965;DHT22;28604;51.204;22.552;2022-10-18T16:36:40;19.10;64.80
42965;DHT22;28604;51.204;22.552;2022-10-18T16:39:12;19.10;64.20
42965;DHT22;28604;51.204;22.552;2022-10-18T16:41:38;19.00;64.40
42965;DHT22;28604;51.204;22.552;2022-10-18T16:44:04;18.90;64.70
42965;DHT22;28604;51.204;22.552;2022-10-18T16:46:32;18.90;66.30
42965;DHT22;28604;51.204;22.552;2022-10-18T16:48:59;18.80;65.80
42965;DHT22;28604;51.204;22.552;2022-10-18T16:51:25;18.70;66.90
42965;DHT22;28604;51.204;22.552;2022-10-18T16:53:52;18.60;66.60
42965;DHT22;28604;51.204;22.552;2022-10-18T16:56:24;18.60;66.30
42965;DHT22;28604;51.204;22.552;2022-10-18T16:58:50;18.50;66.60
42965;DHT22;28604;51.204;22.552;2022-10-18T17:01:19;18.30;68.20
42965;DHT22;28604;51.204;22.552;2022-10-18T17:03:46;18.30;68.30
42965;DHT22;28604;51.204;22.552;2022-10-18T17:06:17;18.30;68.00
42965;DHT22;28604;51.204;22.552;2022-10-18T17:08:44;18.20;67.80
42965;DHT22;28604;51.204;22.552;2022-10-18T17:11:11;18.20;67.70
42965;DHT22;28604;51.204;22.552;2022-10-18T17:13:38;18.10;67.70
42965;DHT22;28604;51.204;22.552;2022-10-18T17:16:04;17.90;68.70
42965;DHT22;28604;51.204;22.552;2022-10-18T17:18:30;17.90;69.30
42965;DHT22;28604;51.204;22.552;2022-10-18T17:20:57;17.90;68.50
42965;DHT22;28604;51.204;22.552;2022-10-18T17:23:28;17.80;67.30
42965;DHT22;28604;51.204;22.552;2022-10-18T17:25:54;17.80;68.40
42965;DHT22;28604;51.204;22.552;2022-10-18T17:28:30;17.70;69.10
42965;DHT22;28604;51.204;22.552;2022-10-18T17:30:56;17.60;69.80
42965;DHT22;28604;51.204;22.552;2022-10-18T17:33:22;17.60;70.30
42965;DHT22;28604;51.204;22.552;2022-10-18T17:35:48;17.50;70.30
42965;DHT22;28604;51.204;22.552;2022-10-18T17:38:14;17.40;70.30
42965;DHT22;28604;51.204;22.552;2022-10-18T17:40:42;17.40;70.40
42965;DHT22;28604;51.204;22.552;2022-10-18T17:43:08;17.30;70.90
42965;DHT22;28604;51.204;22.552;2022-10-18T17:45:34;17.20;70.90
42965;DHT22;28604;51.204;22.552;2022-10-18T17:48:00;17.20;70.90
42965;DHT22;28604;51.204;22.552;2022-10-18T17:50:26;17.20;71.00
42965;DHT22;28604;51.204;22.552;2022-10-18T17:52:53;17.10;71.50
42965;DHT22;28604;51.204;22.552;2022-10-18T17:55:19;17.10;71.50
42965;DHT22;28604;51.204;22.552;2022-10-18T17:57:45;17.10;71.50
42965;DHT22;28604;51.204;22.552;2022-10-18T18:00:12;17.00;71.60
42965;DHT22;28604;51.204;22.552;2022-10-18T18:02:38;17.00;71.50
42965;DHT22;28604;51.204;22.552;2022-10-18T18:05:04;17.00;71.60
42965;DHT22;28604;51.204;22.552;2022-10-18T18:07:31;16.90;71.90
42965;DHT22;28604;51.204;22.552;2022-10-18T18:09:57;16.90;71.70
42965;DHT22;28604;51.204;22.552;2022-10-18T18:12:23;16.90;71.30
42965;DHT22;28604;51.204;22.552;2022-10-18T18:14:49;16.90;71.50
42965;DHT22;28604;51.204;22.552;2022-10-18T18:17:15;16.90;71.50
42965;DHT22;28604;51.204;22.552;2022-10-18T18:19:41;16.90;71.60
42965;DHT22;28604;51.204;22.552;2022-10-18T18:22:07;16.80;72.20
42965;DHT22;28604;51.204;22.552;2022-10-18T18:24:33;16.90;72.10
42965;DHT22;28604;51.204;22.552;2022-10-18T18:26:59;16.80;71.80
42965;DHT22;28604;51.204;22.552;2022-10-18T18:29:26;16.80;72.30
42965;DHT22;28604;51.204;22.552;2022-10-18T18:31:52;16.80;72.30
42965;DHT22;28604;51.204;22.552;2022-10-18T18:34:18;16.80;72.50
42965;DHT22;28604;51.204;22.552;2022-10-18T18:36:47;16.80;72.50